Time;durP1;ratioP1;P1;durP2;ratioP2;P2;SDS_P1;SDS_P2;PMS_P1;PMS_P2;Temp;Humidity;BMP_temperature;BMP_pressure;BME280_temperature;BME280_humidity;BME280_pressure;Samples;Min_cycle;Max_cycle;Signal;HPM_P1;HPM_P2
2022/09/02 00:01:01;;;;;;;;;;;13.20;99.90;;;;;;6130779;23;19905;-84
2022/09/02 00:03:27;;;;;;;;;;;13.20;99.90;;;;;;6154584;23;19960;-85
2022/09/02 00:05:53;;;;;;;;;;;13.20;99.90;;;;;;6130406;23;19979;-84
2022/09/02 00:08:19;;;;;;;;;;;13.20;99.90;;;;;;6154586;23;19932;-84
2022/09/02 00:10:44;;;;;;;;;;;13.10;99.90;;;;;;6152869;23;19905;-84
2022/09/02 00:13:12;;;;;;;;;;;13.20;99.90;;;;;;6154541;23;19928;-84
2022/09/02 00:15:38;;;;;;;;;;;13.20;99.90;;;;;;6129937;23;20030;-84
2022/09/02 00:18:32;;;;;;;;;;;13.20;99.90;;;;;;6129306;23;19936;-85
2022/09/02 00:20:58;;;;;;;;;;;13.20;99.90;;;;;;6129852;23;20355;-84
2022/09/02 00:23:24;;;;;;;;;;;13.20;99.90;;;;;;6129273;23;19908;-84
2022/09/02 00:25:49;;;;;;;;;;;13.10;99.90;;;;;;6154093;23;19905;-84
2022/09/02 00:28:15;;;;;;;;;;;13.10;99.90;;;;;;6154392;23;19929;-83
2022/09/02 00:30:41;;;;;;;;;;;13.10;99.90;;;;;;6128957;23;19916;-84
2022/09/02 00:33:07;;;;;;;;;;;13.00;99.90;;;;;;6129039;23;19912;-84
2022/09/02 00:35:33;;;;;;;;;;;13.00;99.90;;;;;;6153552;23;19999;-85
2022/09/02 00:37:59;;;;;;;;;;;13.00;99.90;;;;;;6155435;23;19944;-84
2022/09/02 00:40:25;;;;;;;;;;;13.00;99.90;;;;;;6129050;23;19987;-84
2022/09/02 00:42:51;;;;;;;;;;;12.90;99.90;;;;;;6128727;23;19905;-84
2022/09/02 00:45:18;;;;;;;;;;;13.00;99.90;;;;;;6155124;23;19976;-85
2022/09/02 00:47:44;;;;;;;;;;;13.00;99.90;;;;;;6128818;23;20313;-84
2022/09/02 00:50:11;;;;;;;;;;;13.00;99.90;;;;;;6129012;23;19910;-84
2022/09/02 00:52:42;;;;;;;;;;;13.00;99.90;;;;;;6128568;23;19908;-84
2022/09/02 00:55:28;;;;;;;;;;;12.90;99.90;;;;;;6153511;23;19975;-84
2022/09/02 00:58:14;;;;;;;;;;;13.00;99.90;;;;;;6129207;23;19909;-84
2022/09/02 01:00:43;;;;;;;;;;;12.90;99.90;;;;;;6128435;23;19955;-84
2022/09/02 01:03:10;;;;;;;;;;;12.90;99.90;;;;;;6129377;23;20601;-84
2022/09/02 01:05:39;;;;;;;;;;;12.90;99.90;;;;;;6129220;23;19924;-84
2022/09/02 01:08:06;;;;;;;;;;;13.00;99.90;;;;;;6128795;23;19908;-84
2022/09/02 01:10:33;;;;;;;;;;;13.00;99.90;;;;;;6153939;23;19936;-84
2022/09/02 01:13:05;;;;;;;;;;;12.90;99.90;;;;;;6129119;23;19912;-85
2022/09/02 01:15:32;;;;;;;;;;;12.90;99.90;;;;;;6129296;23;20536;-84
2022/09/02 01:17:59;;;;;;;;;;;12.90;99.90;;;;;;6129385;23;20657;-84
2022/09/02 01:20:25;;;;;;;;;;;12.90;99.90;;;;;;6129394;23;19904;-85
2022/09/02 01:22:51;;;;;;;;;;;12.80;99.90;;;;;;6128829;23;19904;-84
2022/09/02 01:25:19;;;;;;;;;;;12.80;99.90;;;;;;6153030;23;19951;-84
2022/09/02 01:27:44;;;;;;;;;;;12.70;99.90;;;;;;6129310;23;20492;-84
2022/09/02 01:30:15;;;;;;;;;;;12.80;99.90;;;;;;6153907;23;19987;-85
2022/09/02 01:32:40;;;;;;;;;;;12.80;99.90;;;;;;6154212;23;19928;-84
2022/09/02 01:35:06;;;;;;;;;;;12.70;99.90;;;;;;6129602;23;19904;-84
2022/09/02 01:37:32;;;;;;;;;;;12.70;99.90;;;;;;6129872;23;19904;-85
2022/09/02 01:39:58;;;;;;;;;;;12.60;99.90;;;;;;6131374;23;19942;-84
2022/09/02 01:42:24;;;;;;;;;;;12.60;99.90;;;;;;6130896;23;19909;-84
2022/09/02 01:44:49;;;;;;;;;;;12.60;99.90;;;;;;6155944;23;19912;-84
2022/09/02 01:47:17;;;;;;;;;;;12.60;99.90;;;;;;6156288;23;20337;-85
2022/09/02 01:49:45;;;;;;;;;;;12.50;99.90;;;;;;6131412;23;19913;-85
2022/09/02 01:52:11;;;;;;;;;;;12.50;99.90;;;;;;6155855;23;19904;-84
2022/09/02 01:54:38;;;;;;;;;;;12.40;99.90;;;;;;6155773;23;20313;-84
2022/09/02 01:57:04;;;;;;;;;;;12.40;99.90;;;;;;6131418;23;20241;-84
2022/09/02 01:59:29;;;;;;;;;;;12.30;99.90;;;;;;6131095;23;19909;-84
2022/09/02 02:01:55;;;;;;;;;;;12.20;99.90;;;;;;6131108;23;19961;-85
2022/09/02 02:04:23;;;;;;;;;;;12.20;99.90;;;;;;6155529;23;19905;-84
2022/09/02 02:06:50;;;;;;;;;;;12.10;99.90;;;;;;6155558;23;19927;-84
2022/09/02 02:09:16;;;;;;;;;;;12.10;99.90;;;;;;6131324;23;19904;-84
2022/09/02 02:11:44;;;;;;;;;;;12.10;99.90;;;;;;6132010;23;19935;-84
2022/09/02 02:14:12;;;;;;;;;;;12.00;99.90;;;;;;6131588;23;19904;-84
2022/09/02 02:16:44;;;;;;;;;;;12.00;99.90;;;;;;6131890;23;19912;-84
2022/09/02 02:19:11;;;;;;;;;;;12.00;99.90;;;;;;6155547;23;19908;-84
2022/09/02 02:21:37;;;;;;;;;;;11.90;99.90;;;;;;6131120;23;19906;-84
2022/09/02 02:24:07;;;;;;;;;;;11.90;99.90;;;;;;6130021;23;19940;-84
2022/09/02 02:26:33;;;;;;;;;;;11.90;99.90;;;;;;6130090;23;19908;-85
2022/09/02 02:28:59;;;;;;;;;;;11.90;99.90;;;;;;6130086;23;19908;-85
2022/09/02 02:31:26;;;;;;;;;;;11.90;99.90;;;;;;6131249;23;19911;-84
2022/09/02 02:33:52;;;;;;;;;;;11.90;99.90;;;;;;6130813;23;19905;-84
2022/09/02 02:36:18;;;;;;;;;;;11.90;99.90;;;;;;6155670;23;19955;-84
2022/09/02 02:38:45;;;;;;;;;;;11.90;99.90;;;;;;6131022;23;20086;-84
2022/09/02 02:41:12;;;;;;;;;;;12.00;99.90;;;;;;6131184;23;19936;-85
2022/09/02 02:43:38;;;;;;;;;;;12.00;99.90;;;;;;6130819;23;20293;-84
2022/09/02 02:46:04;;;;;;;;;;;12.00;99.90;;;;;;6130914;23;20265;-84
2022/09/02 02:48:30;;;;;;;;;;;11.90;99.90;;;;;;6130624;23;19905;-84
2022/09/02 02:50:56;;;;;;;;;;;11.80;99.90;;;;;;6129978;23;19964;-84
2022/09/02 02:53:22;;;;;;;;;;;11.80;99.90;;;;;;6130210;23;19912;-85
2022/09/02 02:55:47;;;;;;;;;;;12.00;99.90;;;;;;6130905;23;19904;-84
2022/09/02 02:58:13;;;;;;;;;;;12.00;99.90;;;;;;6155158;23;19998;-84
2022/09/02 03:00:39;;;;;;;;;;;12.00;99.90;;;;;;6155477;23;19996;-84
2022/09/02 03:03:06;;;;;;;;;;;12.00;99.90;;;;;;6130561;23;19983;-85
2022/09/02 03:05:34;;;;;;;;;;;12.10;99.90;;;;;;6130602;23;19943;-84
2022/09/02 03:08:01;;;;;;;;;;;12.10;99.90;;;;;;6130835;23;19911;-84
2022/09/02 03:10:31;;;;;;;;;;;12.10;99.90;;;;;;6130913;23;19905;-84
2022/09/02 03:13:01;;;;;;;;;;;12.10;99.90;;;;;;6155077;23;20392;-85
2022/09/02 03:15:27;;;;;;;;;;;12.10;99.90;;;;;;6130497;23;20356;-85
2022/09/02 03:17:54;;;;;;;;;;;12.00;99.90;;;;;;6131020;23;19915;-84
2022/09/02 03:20:20;;;;;;;;;;;12.00;99.90;;;;;;6154915;23;19905;-85
2022/09/02 03:22:53;;;;;;;;;;;12.10;99.90;;;;;;6154245;23;19904;-84
2022/09/02 03:25:19;;;;;;;;;;;12.10;99.90;;;;;;6130335;23;19912;-84
2022/09/02 03:27:46;;;;;;;;;;;12.10;99.90;;;;;;6130936;23;19951;-84
2022/09/02 03:30:15;;;;;;;;;;;12.20;99.90;;;;;;6155369;23;19909;-84
2022/09/02 03:32:41;;;;;;;;;;;12.20;99.90;;;;;;6130633;23;19905;-84
2022/09/02 03:35:09;;;;;;;;;;;12.30;99.90;;;;;;6130155;23;19905;-84
2022/09/02 03:37:35;;;;;;;;;;;12.20;99.90;;;;;;6130560;23;19911;-84
2022/09/02 03:40:02;;;;;;;;;;;12.30;99.90;;;;;;6130694;23;19908;-84
2022/09/02 03:42:30;;;;;;;;;;;12.20;99.90;;;;;;6155366;23;19904;-84
2022/09/02 03:44:55;;;;;;;;;;;12.20;99.90;;;;;;6130380;23;20340;-84
2022/09/02 03:47:22;;;;;;;;;;;12.20;99.90;;;;;;6130650;23;19910;-85
2022/09/02 03:49:48;;;;;;;;;;;12.10;99.90;;;;;;6130084;23;19911;-84
2022/09/02 03:52:13;;;;;;;;;;;12.00;99.90;;;;;;6130403;23;20316;-84
2022/09/02 03:54:40;;;;;;;;;;;12.00;99.90;;;;;;6130361;23;19904;-85
2022/09/02 03:57:06;;;;;;;;;;;11.90;99.90;;;;;;6154341;23;19904;-84
2022/09/02 03:59:32;;;;;;;;;;;11.90;99.90;;;;;;6129562;23;20639;-85
2022/09/02 04:01:57;;;;;;;;;;;11.80;99.90;;;;;;6129714;23;19946;-84
2022/09/02 04:04:23;;;;;;;;;;;11.80;99.90;;;;;;6154043;23;19908;-84
2022/09/02 04:06:51;;;;;;;;;;;11.80;99.90;;;;;;6130353;23;19900;-84
2022/09/02 04:09:16;;;;;;;;;;;11.70;99.90;;;;;;6154752;23;19905;-84
2022/09/02 04:11:42;;;;;;;;;;;11.50;99.90;;;;;;6130268;23;19959;-84
2022/09/02 04:14:09;;;;;;;;;;;11.50;99.90;;;;;;6130242;23;19955;-84
2022/09/02 04:16:35;;;;;;;;;;;11.50;99.90;;;;;;6130625;23;19983;-84
2022/09/02 04:19:05;;;;;;;;;;;11.60;99.90;;;;;;6154702;23;19991;-84
2022/09/02 04:21:33;;;;;;;;;;;11.80;99.90;;;;;;6130041;23;20225;-84
2022/09/02 04:23:59;;;;;;;;;;;11.70;99.90;;;;;;6130022;23;19908;-84
2022/09/02 04:26:26;;;;;;;;;;;11.70;99.90;;;;;;6130378;23;19939;-84
2022/09/02 04:28:54;;;;;;;;;;;11.70;99.90;;;;;;6130365;23;19991;-84
2022/09/02 04:31:24;;;;;;;;;;;11.70;99.90;;;;;;6153902;23;19909;-83
2022/09/02 04:33:50;;;;;;;;;;;11.70;99.90;;;;;;6153219;23;19908;-84
2022/09/02 04:36:17;;;;;;;;;;;11.70;99.90;;;;;;6129402;23;20237;-84
2022/09/02 04:38:43;;;;;;;;;;;11.60;99.90;;;;;;6129526;23;19944;-84
2022/09/02 04:41:15;;;;;;;;;;;11.60;99.90;;;;;;6154265;23;19911;-84
2022/09/02 04:43:41;;;;;;;;;;;11.60;99.90;;;;;;6129519;23;19905;-84
2022/09/02 04:46:08;;;;;;;;;;;11.60;99.90;;;;;;6130138;23;19955;-84
2022/09/02 04:48:37;;;;;;;;;;;11.60;99.90;;;;;;6154367;23;20572;-84
2022/09/02 04:51:04;;;;;;;;;;;11.60;99.90;;;;;;6130185;23;20511;-84
2022/09/02 04:53:30;;;;;;;;;;;11.60;99.90;;;;;;6129973;23;19987;-84
2022/09/02 04:55:56;;;;;;;;;;;11.50;99.90;;;;;;6130068;23;19935;-84
2022/09/02 04:58:22;;;;;;;;;;;11.60;99.90;;;;;;6129735;23;19998;-84
2022/09/02 05:00:48;;;;;;;;;;;11.60;99.90;;;;;;6154158;23;19904;-84
2022/09/02 05:03:15;;;;;;;;;;;11.50;99.90;;;;;;6153404;23;19972;-84
2022/09/02 05:05:43;;;;;;;;;;;11.60;99.90;;;;;;6153699;23;20071;-84
2022/09/02 05:08:12;;;;;;;;;;;11.60;99.90;;;;;;6129980;23;19931;-85
2022/09/02 05:10:38;;;;;;;;;;;11.70;99.90;;;;;;6153687;23;19900;-84
2022/09/02 05:13:05;;;;;;;;;;;11.70;99.90;;;;;;6130364;23;19936;-84
2022/09/02 05:15:37;;;;;;;;;;;11.80;99.90;;;;;;6132401;23;19904;-84
2022/09/02 05:18:02;;;;;;;;;;;11.80;99.90;;;;;;6131545;23;19915;-84
2022/09/02 05:20:28;;;;;;;;;;;11.80;99.90;;;;;;6131920;23;20007;-84
2022/09/02 05:22:54;;;;;;;;;;;11.80;99.90;;;;;;6131337;23;19940;-84
2022/09/02 05:25:20;;;;;;;;;;;11.80;99.90;;;;;;6131491;23;20318;-85
2022/09/02 05:27:46;;;;;;;;;;;11.90;99.90;;;;;;6131827;23;19984;-84
2022/09/02 05:30:12;;;;;;;;;;;11.90;99.90;;;;;;6156519;23;19955;-85
2022/09/02 05:32:40;;;;;;;;;;;12.00;99.90;;;;;;6131626;23;19908;-84
2022/09/02 05:35:05;;;;;;;;;;;12.10;99.90;;;;;;6131229;23;20237;-84
2022/09/02 05:37:33;;;;;;;;;;;12.20;99.90;;;;;;6132003;23;19904;-84
2022/09/02 05:39:59;;;;;;;;;;;12.20;99.90;;;;;;6131882;23;19912;-84
2022/09/02 05:42:24;;;;;;;;;;;12.20;99.90;;;;;;6156808;23;19940;-85
2022/09/02 05:44:51;;;;;;;;;;;12.30;99.90;;;;;;6131139;23;20282;-84
2022/09/02 05:47:19;;;;;;;;;;;12.40;99.90;;;;;;6156476;23;20330;-84
2022/09/02 05:49:46;;;;;;;;;;;12.50;99.90;;;;;;6131797;23;19936;-84
2022/09/02 05:52:14;;;;;;;;;;;12.50;99.90;;;;;;6132378;23;19939;-85
2022/09/02 05:54:43;;;;;;;;;;;12.60;99.90;;;;;;6132190;23;19934;-84
2022/09/02 05:57:13;;;;;;;;;;;12.70;99.90;;;;;;6132558;23;19940;-84
2022/09/02 05:59:44;;;;;;;;;;;12.80;99.90;;;;;;6156021;23;19991;-84
2022/09/02 06:02:15;;;;;;;;;;;12.90;99.90;;;;;;6132306;23;19909;-84
2022/09/02 06:04:42;;;;;;;;;;;13.00;99.90;;;;;;6155222;23;19911;-84
2022/09/02 06:07:09;;;;;;;;;;;13.00;99.90;;;;;;6157236;23;19900;-85
2022/09/02 06:09:35;;;;;;;;;;;13.10;99.90;;;;;;6131376;23;19927;-85
2022/09/02 06:12:01;;;;;;;;;;;13.20;99.90;;;;;;6131533;23;20314;-85
2022/09/02 06:14:30;;;;;;;;;;;13.30;99.90;;;;;;6131663;23;20603;-84
2022/09/02 06:16:57;;;;;;;;;;;13.40;99.90;;;;;;6129145;23;20000;-85
2022/09/02 06:19:32;;;;;;;;;;;13.50;99.90;;;;;;6154694;23;19963;-84
2022/09/02 06:22:00;;;;;;;;;;;13.50;99.90;;;;;;6155270;23;19911;-84
2022/09/02 06:24:26;;;;;;;;;;;13.50;99.90;;;;;;6129500;23;19959;-85
2022/09/02 06:26:53;;;;;;;;;;;13.70;99.90;;;;;;6153907;23;19908;-83
2022/09/02 06:29:20;;;;;;;;;;;13.70;99.90;;;;;;6154717;23;20516;-84
2022/09/02 06:31:47;;;;;;;;;;;13.70;99.90;;;;;;6130573;23;20249;-84
2022/09/02 06:34:16;;;;;;;;;;;13.90;99.90;;;;;;6154973;23;19904;-84
2022/09/02 06:36:45;;;;;;;;;;;13.90;99.90;;;;;;6130644;23;20465;-84
2022/09/02 06:39:12;;;;;;;;;;;14.00;99.90;;;;;;6130880;23;20370;-84
2022/09/02 06:41:39;;;;;;;;;;;14.10;99.90;;;;;;6130682;23;19905;-85
2022/09/02 06:44:09;;;;;;;;;;;14.10;99.90;;;;;;6130923;23;19967;-85
2022/09/02 06:46:39;;;;;;;;;;;14.20;99.90;;;;;;6130611;23;20039;-84
2022/09/02 06:49:07;;;;;;;;;;;14.30;99.90;;;;;;6154527;23;19905;-85
2022/09/02 06:51:41;;;;;;;;;;;14.40;99.90;;;;;;6130463;23;20194;-88
2022/09/02 06:54:08;;;;;;;;;;;14.50;99.90;;;;;;6130194;23;19912;-88
2022/09/02 06:56:36;;;;;;;;;;;14.50;99.90;;;;;;6131390;23;19905;-88
2022/09/02 06:59:03;;;;;;;;;;;14.60;99.90;;;;;;6130463;23;19931;-88
2022/09/02 07:01:42;;;;;;;;;;;14.70;99.90;;;;;;6155073;23;19971;-87
2022/09/02 07:06:54;;;;;;;;;;;14.80;99.90;;;;;;6155288;23;19956;-87
2022/09/02 07:09:22;;;;;;;;;;;14.90;99.90;;;;;;6130822;23;20233;-88
2022/09/02 07:11:49;;;;;;;;;;;15.00;99.90;;;;;;6155355;23;20456;-88
2022/09/02 07:14:16;;;;;;;;;;;15.10;99.90;;;;;;6155472;23;19904;-87
2022/09/02 07:16:47;;;;;;;;;;;15.10;99.90;;;;;;6130959;23;19904;-88
2022/09/02 07:19:13;;;;;;;;;;;15.10;99.90;;;;;;6155258;23;20031;-88
2022/09/02 07:21:40;;;;;;;;;;;15.20;99.90;;;;;;6155662;23;19907;-88
2022/09/02 07:24:07;;;;;;;;;;;15.30;99.90;;;;;;6130709;23;19904;-89
2022/09/02 07:30:03;;;;;;;;;;;15.30;99.90;;;;;;6156726;23;20039;-88
2022/09/02 07:32:30;;;;;;;;;;;15.40;99.90;;;;;;6154958;23;19928;-88
2022/09/02 07:34:56;;;;;;;;;;;15.50;99.90;;;;;;6155270;23;19905;-88
2022/09/02 07:37:22;;;;;;;;;;;15.50;99.90;;;;;;6154522;23;19932;-88
2022/09/02 07:39:50;;;;;;;;;;;15.60;99.90;;;;;;6154477;23;19944;-88
2022/09/02 07:42:35;;;;;;;;;;;15.70;99.90;;;;;;6130654;23;19999;-89
2022/09/02 07:45:01;;;;;;;;;;;15.70;99.90;;;;;;6154246;23;19967;-88
2022/09/02 07:47:27;;;;;;;;;;;15.80;99.90;;;;;;6154879;23;19911;-88
2022/09/02 07:49:52;;;;;;;;;;;15.90;99.90;;;;;;6154112;23;19928;-86
2022/09/02 07:52:19;;;;;;;;;;;15.90;99.90;;;;;;6154383;23;19955;-87
2022/09/02 07:58:14;;;;;;;;;;;16.00;99.90;;;;;;6156620;23;19918;-87
2022/09/02 08:00:40;;;;;;;;;;;16.10;99.90;;;;;;6130015;23;19959;-89
2022/09/02 08:03:09;;;;;;;;;;;16.10;99.90;;;;;;6130316;23;19904;-87
2022/09/02 08:05:39;;;;;;;;;;;16.10;99.90;;;;;;6130860;23;19905;-87
2022/09/02 08:08:05;;;;;;;;;;;16.20;99.90;;;;;;6155248;23;20002;-88
2022/09/02 08:10:31;;;;;;;;;;;16.30;99.90;;;;;;6130639;23;20340;-87
2022/09/02 08:12:57;;;;;;;;;;;16.30;99.90;;;;;;6154818;23;20317;-87
2022/09/02 08:15:23;;;;;;;;;;;16.40;99.90;;;;;;6154806;23;19954;-87
2022/09/02 08:17:49;;;;;;;;;;;16.50;99.90;;;;;;6129901;23;20513;-88
2022/09/02 08:20:16;;;;;;;;;;;16.60;99.90;;;;;;6154770;23;19911;-87
2022/09/02 08:22:42;;;;;;;;;;;16.60;99.90;;;;;;6155134;23;19927;-88
2022/09/02 08:25:08;;;;;;;;;;;16.60;99.90;;;;;;6130298;23;19907;-87
2022/09/02 08:27:34;;;;;;;;;;;16.80;99.90;;;;;;6130551;23;20344;-87
2022/09/02 08:30:00;;;;;;;;;;;16.80;99.90;;;;;;6130112;23;19932;-87
2022/09/02 08:32:27;;;;;;;;;;;16.90;99.90;;;;;;6130283;23;19905;-87
2022/09/02 08:34:52;;;;;;;;;;;17.00;99.90;;;;;;6129876;23;19979;-87
2022/09/02 08:37:18;;;;;;;;;;;17.00;99.90;;;;;;6154546;23;20388;-87
2022/09/02 08:39:44;;;;;;;;;;;17.00;99.90;;;;;;6129639;23;19919;-87
2022/09/02 08:42:39;;;;;;;;;;;17.30;99.90;;;;;;6130760;23;20038;-88
2022/09/02 08:45:07;;;;;;;;;;;17.40;99.90;;;;;;6151216;23;19904;-86
2022/09/02 08:47:34;;;;;;;;;;;17.50;99.90;;;;;;6130576;23;19991;-87
2022/09/02 08:50:02;;;;;;;;;;;17.50;99.90;;;;;;6158075;23;19904;-88
2022/09/02 08:52:32;;;;;;;;;;;17.70;99.90;;;;;;6159730;23;19904;-87
2022/09/02 08:54:58;;;;;;;;;;;18.10;99.90;;;;;;6159537;23;20318;-87
2022/09/02 08:57:25;;;;;;;;;;;19.30;99.90;;;;;;6159312;23;19909;-88
2022/09/02 08:59:52;;;;;;;;;;;20.60;99.90;;;;;;6159379;23;20504;-87
2022/09/02 09:02:19;;;;;;;;;;;21.80;99.90;;;;;;6133126;23;19908;-87
2022/09/02 09:04:44;;;;;;;;;;;22.50;99.90;;;;;;6133046;23;19994;-87
2022/09/02 09:07:19;;;;;;;;;;;22.30;99.90;;;;;;6157245;23;19948;-88
2022/09/02 09:10:00;;;;;;;;;;;22.00;99.90;;;;;;6158116;23;20297;-87
2022/09/02 09:12:41;;;;;;;;;;;22.00;99.90;;;;;;6157604;23;19905;-88
2022/09/02 09:15:16;;;;;;;;;;;22.70;99.90;;;;;;6132735;23;19904;-87
2022/09/02 09:17:43;;;;;;;;;;;22.60;99.90;;;;;;6158009;23;19905;-88
2022/09/02 09:20:23;;;;;;;;;;;22.40;99.90;;;;;;6133352;23;19959;-87
2022/09/02 09:22:51;;;;;;;;;;;22.50;99.90;;;;;;6157503;23;19904;-87
2022/09/02 09:25:17;;;;;;;;;;;23.30;99.60;;;;;;6132798;23;19960;-87
2022/09/02 09:27:45;;;;;;;;;;;23.50;97.90;;;;;;6159196;23;20277;-88
2022/09/02 09:30:12;;;;;;;;;;;23.40;97.00;;;;;;6132930;23;19908;-87
2022/09/02 09:32:46;;;;;;;;;;;23.40;97.00;;;;;;6157584;23;19951;-88
2022/09/02 09:35:13;;;;;;;;;;;23.60;96.10;;;;;;6133723;23;19904;-87
2022/09/02 09:37:44;;;;;;;;;;;23.10;96.70;;;;;;6158279;23;19912;-88
2022/09/02 09:40:22;;;;;;;;;;;22.60;96.20;;;;;;6158495;23;19992;-87
2022/09/02 09:42:50;;;;;;;;;;;22.20;97.50;;;;;;6133272;23;19904;-88
2022/09/02 09:45:24;;;;;;;;;;;22.20;97.70;;;;;;6132222;23;19909;-87
2022/09/02 09:48:09;;;;;;;;;;;22.30;96.60;;;;;;6155095;23;19931;-87
2022/09/02 09:50:34;;;;;;;;;;;22.20;97.00;;;;;;6157511;23;19915;-87
2022/09/02 09:53:13;;;;;;;;;;;22.60;95.40;;;;;;6157333;23;19900;-88
2022/09/02 09:55:49;;;;;;;;;;;22.20;94.10;;;;;;6132970;23;20340;-87
2022/09/02 09:58:15;;;;;;;;;;;22.40;93.30;;;;;;6157230;23;19915;-87
2022/09/02 10:00:41;;;;;;;;;;;22.10;93.10;;;;;;6131702;23;19900;-87
2022/09/02 10:03:09;;;;;;;;;;;22.30;92.90;;;;;;6155541;23;20240;-87
2022/09/02 10:05:36;;;;;;;;;;;22.60;93.60;;;;;;6155869;23;19904;-87
2022/09/02 10:08:17;;;;;;;;;;;23.00;93.10;;;;;;6131279;23;20281;-87
2022/09/02 10:11:02;;;;;;;;;;;23.40;91.60;;;;;;6155965;23;19909;-87
2022/09/02 10:13:29;;;;;;;;;;;23.80;90.10;;;;;;6155123;23;19908;-86
2022/09/02 10:16:13;;;;;;;;;;;23.60;90.20;;;;;;6155663;23;19958;-87
2022/09/02 10:18:45;;;;;;;;;;;22.80;90.60;;;;;;6155131;23;19909;-87
2022/09/02 10:21:10;;;;;;;;;;;22.00;92.10;;;;;;6129844;23;19931;-87
2022/09/02 10:23:39;;;;;;;;;;;22.30;92.10;;;;;;6155235;23;19979;-87
2022/09/02 10:26:13;;;;;;;;;;;22.80;91.60;;;;;;6131121;23;20340;-89
2022/09/02 10:29:02;;;;;;;;;;;23.40;91.60;;;;;;6155068;23;19953;-88
2022/09/02 10:31:36;;;;;;;;;;;24.20;90.10;;;;;;6118972;23;20218;-88
2022/09/02 10:34:08;;;;;;;;;;;24.70;88.30;;;;;;6155278;23;20038;-86
2022/09/02 10:36:42;;;;;;;;;;;24.20;85.80;;;;;;6131518;23;20277;-86
2022/09/02 10:39:28;;;;;;;;;;;23.90;83.90;;;;;;6155815;23;19915;-87
2022/09/02 10:41:57;;;;;;;;;;;24.20;85.00;;;;;;6155963;23;20233;-87
2022/09/02 10:44:25;;;;;;;;;;;24.80;82.60;;;;;;6155900;23;19900;-87
2022/09/02 10:47:00;;;;;;;;;;;24.80;78.20;;;;;;6157256;23;19904;-87
2022/09/02 10:49:55;;;;;;;;;;;23.70;80.50;;;;;;6156083;23;19968;-88
2022/09/02 10:52:32;;;;;;;;;;;23.70;81.40;;;;;;6055773;23;19913;-88
2022/09/02 10:54:58;;;;;;;;;;;24.20;80.00;;;;;;6131580;23;19909;-89
2022/09/02 10:57:31;;;;;;;;;;;24.60;77.80;;;;;;6130637;23;19971;-88
2022/09/02 11:00:09;;;;;;;;;;;23.90;77.10;;;;;;6155690;23;19909;-88
2022/09/02 11:02:38;;;;;;;;;;;24.30;77.50;;;;;;6131273;23;19904;-89
2022/09/02 11:05:07;;;;;;;;;;;24.60;77.40;;;;;;6130899;23;19904;-89
2022/09/02 11:07:39;;;;;;;;;;;25.10;74.80;;;;;;6131022;23;19905;-88
2022/09/02 11:10:14;;;;;;;;;;;25.00;73.20;;;;;;6155549;23;20325;-89
2022/09/02 11:12:53;;;;;;;;;;;25.00;74.50;;;;;;6130758;23;19904;-89
2022/09/02 11:15:22;;;;;;;;;;;24.80;73.10;;;;;;6131008;23;20237;-89
2022/09/02 11:18:02;;;;;;;;;;;25.80;73.60;;;;;;6155804;23;19913;-89
2022/09/02 11:20:29;;;;;;;;;;;26.10;71.00;;;;;;6131360;23;19908;-89
2022/09/02 11:23:13;;;;;;;;;;;25.90;68.60;;;;;;6155632;23;19905;-89
2022/09/02 11:25:46;;;;;;;;;;;25.70;70.00;;;;;;6131263;23;19951;-89
2022/09/02 11:28:21;;;;;;;;;;;24.90;69.10;;;;;;6155937;23;19909;-89
2022/09/02 11:31:07;;;;;;;;;;;24.70;70.50;;;;;;6155502;23;19904;-89
2022/09/02 11:33:51;;;;;;;;;;;25.20;70.00;;;;;;6153551;23;20656;-88
2022/09/02 11:36:17;;;;;;;;;;;25.60;68.10;;;;;;6130772;23;19931;-89
2022/09/02 11:38:50;;;;;;;;;;;25.80;66.80;;;;;;6155353;23;19908;-88
2022/09/02 11:41:45;;;;;;;;;;;26.50;66.20;;;;;;6156640;23;19905;-88
2022/09/02 11:44:27;;;;;;;;;;;26.10;67.20;;;;;;6054097;23;19944;-88
2022/09/02 11:47:11;;;;;;;;;;;26.40;64.90;;;;;;6155096;23;19976;-87
2022/09/02 11:53:00;;;;;;;;;;;26.60;63.00;;;;;;6155146;23;19958;-88
2022/09/02 11:55:38;;;;;;;;;;;26.60;61.90;;;;;;6155844;23;19936;-89
2022/09/02 11:58:04;;;;;;;;;;;26.80;61.50;;;;;;6154226;23;20356;-90
2022/09/02 12:00:35;;;;;;;;;;;26.40;61.80;;;;;;6155638;23;19904;-88
2022/09/02 12:03:04;;;;;;;;;;;26.80;63.80;;;;;;6154803;23;19908;-88
2022/09/02 12:05:38;;;;;;;;;;;26.90;60.00;;;;;;6130560;23;19901;-89
2022/09/02 12:08:10;;;;;;;;;;;26.20;60.30;;;;;;6154535;23;19959;-90
2022/09/02 12:10:40;;;;;;;;;;;25.40;62.10;;;;;;6130539;23;19980;-87
2022/09/02 12:13:07;;;;;;;;;;;25.50;64.00;;;;;;6130447;23;20336;-88
2022/09/02 12:15:34;;;;;;;;;;;25.20;65.10;;;;;;6154239;23;19901;-89
2022/09/02 12:18:13;;;;;;;;;;;25.30;64.00;;;;;;6154373;23;19908;-89
2022/09/02 12:20:40;;;;;;;;;;;25.30;62.40;;;;;;6154016;23;19904;-90
2022/09/02 12:23:07;;;;;;;;;;;25.00;63.80;;;;;;6129354;23;19900;-89
2022/09/02 12:25:36;;;;;;;;;;;24.70;63.90;;;;;;6153987;23;19906;-88
2022/09/02 12:28:08;;;;;;;;;;;24.80;64.60;;;;;;6154579;23;19912;-89
2022/09/02 12:30:52;;;;;;;;;;;24.50;63.60;;;;;;6130330;23;19917;-89
2022/09/02 12:33:28;;;;;;;;;;;24.40;65.80;;;;;;6154713;23;19905;-87
2022/09/02 12:35:55;;;;;;;;;;;24.40;65.60;;;;;;6154532;23;19909;-89
2022/09/02 12:38:22;;;;;;;;;;;24.30;65.10;;;;;;6130442;23;20388;-89
2022/09/02 12:40:54;;;;;;;;;;;24.40;65.60;;;;;;6154558;23;19912;-88
2022/09/02 12:43:46;;;;;;;;;;;24.20;64.30;;;;;;6155760;23;19930;-88
2022/09/02 12:46:16;;;;;;;;;;;23.90;65.70;;;;;;6121017;23;20481;-89
2022/09/02 12:48:43;;;;;;;;;;;24.00;65.10;;;;;;6130058;23;20233;-88
2022/09/02 12:51:09;;;;;;;;;;;24.20;65.90;;;;;;6154440;23;19927;-90
2022/09/02 12:53:40;;;;;;;;;;;24.40;64.00;;;;;;6155642;23;19904;-90
2022/09/02 12:56:12;;;;;;;;;;;24.20;63.80;;;;;;6156050;23;19904;-87
2022/09/02 12:58:41;;;;;;;;;;;24.10;64.40;;;;;;6130363;23;19988;-90
2022/09/02 13:01:26;;;;;;;;;;;24.00;65.20;;;;;;6130231;23;19959;-88
2022/09/02 13:03:59;;;;;;;;;;;24.20;65.40;;;;;;6129859;23;20285;-88
2022/09/02 13:06:44;;;;;;;;;;;24.30;64.80;;;;;;6130090;23;19915;-89
2022/09/02 13:09:19;;;;;;;;;;;24.10;64.70;;;;;;6130270;23;19905;-89
2022/09/02 13:12:09;;;;;;;;;;;24.30;65.20;;;;;;6129974;23;19936;-89
2022/09/02 13:15:00;;;;;;;;;;;24.70;65.30;;;;;;6154351;23;19911;-91
2022/09/02 13:17:34;;;;;;;;;;;25.00;62.70;;;;;;6129824;23;19951;-89
2022/09/02 13:20:05;;;;;;;;;;;25.00;63.50;;;;;;6129540;23;19916;-89
2022/09/02 13:22:45;;;;;;;;;;;25.00;62.50;;;;;;6154882;23;19905;-88
2022/09/02 13:25:46;;;;;;;;;;;25.10;62.00;;;;;;6154143;23;20100;-90
2022/09/02 13:28:21;;;;;;;;;;;24.70;63.00;;;;;;6071204;23;20311;-89
2022/09/02 13:30:59;;;;;;;;;;;24.50;62.30;;;;;;6117551;23;19904;-89
2022/09/02 13:33:25;;;;;;;;;;;24.60;63.00;;;;;;6128881;23;19912;-90
2022/09/02 13:35:57;;;;;;;;;;;24.60;64.00;;;;;;6156099;23;19948;-90
2022/09/02 13:38:24;;;;;;;;;;;24.30;64.50;;;;;;6156155;23;19908;-89
2022/09/02 13:40:49;;;;;;;;;;;24.00;63.50;;;;;;6156403;23;19905;-88
2022/09/02 13:43:15;;;;;;;;;;;23.60;65.50;;;;;;6131318;23;19915;-89
2022/09/02 13:45:41;;;;;;;;;;;23.30;65.70;;;;;;6156605;23;20313;-88
2022/09/02 13:48:09;;;;;;;;;;;23.10;67.20;;;;;;6131954;23;19904;-89
2022/09/02 13:50:34;;;;;;;;;;;22.80;67.50;;;;;;6132046;23;20245;-88
2022/09/02 13:53:01;;;;;;;;;;;22.60;67.90;;;;;;6131131;23;19905;-89
2022/09/02 13:55:27;;;;;;;;;;;22.50;68.00;;;;;;6155816;23;20265;-88
2022/09/02 13:57:56;;;;;;;;;;;22.40;68.50;;;;;;6155314;23;20591;-88
2022/09/02 14:00:26;;;;;;;;;;;22.40;68.30;;;;;;6155843;23;20313;-89
2022/09/02 14:03:06;;;;;;;;;;;22.40;70.00;;;;;;6131516;23;19912;-89
2022/09/02 14:05:32;;;;;;;;;;;22.50;69.00;;;;;;6131746;23;19938;-89
2022/09/02 14:08:00;;;;;;;;;;;22.40;69.10;;;;;;6131502;23;19911;-86
2022/09/02 14:10:26;;;;;;;;;;;22.50;69.30;;;;;;6156496;23;20320;-86
2022/09/02 14:12:54;;;;;;;;;;;22.40;68.90;;;;;;6156357;23;19936;-86
2022/09/02 14:15:24;;;;;;;;;;;22.40;68.70;;;;;;6156386;23;19935;-92
2022/09/02 14:18:10;;;;;;;;;;;22.40;68.30;;;;;;6156612;23;19908;-91
2022/09/02 14:20:37;;;;;;;;;;;22.50;70.00;;;;;;6156242;23;20237;-90
2022/09/02 14:23:03;;;;;;;;;;;22.40;70.40;;;;;;6156608;23;19911;-92
2022/09/02 14:25:32;;;;;;;;;;;22.50;69.10;;;;;;6132202;23;19909;-90
2022/09/02 14:27:59;;;;;;;;;;;22.30;68.40;;;;;;6156354;23;19909;-91
2022/09/02 14:30:35;;;;;;;;;;;22.30;68.40;;;;;;6131215;23;20341;-90
2022/09/02 14:33:16;;;;;;;;;;;22.20;69.00;;;;;;6131994;23;19904;-91
2022/09/02 14:35:54;;;;;;;;;;;22.30;69.80;;;;;;6131692;23;19905;-93
2022/09/02 14:38:23;;;;;;;;;;;22.30;70.10;;;;;;6131893;23;19975;-90
2022/09/02 14:40:57;;;;;;;;;;;22.20;68.80;;;;;;6156491;23;19904;-91
2022/09/02 14:43:22;;;;;;;;;;;22.20;70.20;;;;;;6156485;23;19912;-91